createdAt,value
2023-04-30T00:01:53.664Z,100058.17
2023-04-30T00:04:22.049Z,100053.80
2023-04-30T00:06:50.603Z,100055.98
2023-04-30T00:09:18.918Z,100057.41
2023-04-30T00:11:47.732Z,100055.11
2023-04-30T00:14:16.697Z,100055.68
2023-04-30T00:16:48.242Z,100057.49
2023-04-30T00:19:16.799Z,100059.09
2023-04-30T00:21:48.112Z,100060.24
2023-04-30T00:24:16.468Z,100059.48
2023-04-30T00:26:45.008Z,100060.17
2023-04-30T00:29:13.306Z,100059.79
2023-04-30T00:31:42.184Z,100065.23
2023-04-30T00:34:10.542Z,100068.53
2023-04-30T00:36:39.959Z,100065.65
2023-04-30T00:39:08.335Z,100067.77
2023-04-30T00:41:37.430Z,100071.85
2023-04-30T00:44:06.874Z,100075.06
2023-04-30T00:46:35.219Z,100077.05
2023-04-30T00:49:05.276Z,100081.52
2023-04-30T00:51:33.824Z,100082.33
2023-04-30T00:54:03.641Z,100086.63
2023-04-30T00:56:32.605Z,100085.70
2023-04-30T00:59:02.066Z,100083.75
2023-04-30T01:01:30.651Z,100081.85
2023-04-30T01:04:01.236Z,100084.15
2023-04-30T01:06:29.827Z,100084.09
2023-04-30T01:08:58.683Z,100083.52
2023-04-30T01:11:29.954Z,100086.04
2023-04-30T01:14:19.571Z,100084.09
2023-04-30T01:16:55.234Z,100081.68
2023-04-30T01:19:40.695Z,100080.28
2023-04-30T01:22:26.113Z,100082.45
2023-04-30T01:25:12.990Z,100082.67
2023-04-30T01:28:05.637Z,100082.70
2023-04-30T01:30:35.508Z,100083.63
2023-04-30T01:33:04.563Z,100084.33
2023-04-30T01:35:44.312Z,100085.87
2023-04-30T01:38:42.580Z,100087.90
2023-04-30T01:41:26.011Z,100089.64
2023-04-30T01:44:09.362Z,100092.23
2023-04-30T01:46:37.858Z,100092.89
2023-04-30T01:49:26.360Z,100096.14
2023-04-30T01:52:04.201Z,100093.33
2023-04-30T01:54:41.888Z,100098.55
2023-04-30T01:57:50.268Z,100100.77
2023-04-30T02:00:19.351Z,100103.74
2023-04-30T02:02:47.731Z,100100.75
2023-04-30T02:05:16.268Z,100104.28
2023-04-30T02:07:48.268Z,100102.32
2023-04-30T02:10:18.131Z,100099.86
2023-04-30T02:12:46.598Z,100099.55
2023-04-30T02:15:15.595Z,100102.23
2023-04-30T02:17:44.296Z,100104.55
2023-04-30T02:20:13.119Z,100108.77
2023-04-30T02:22:41.679Z,100107.30
2023-04-30T02:25:11.803Z,100108.54
2023-04-30T02:27:40.937Z,100109.27
2023-04-30T02:30:09.640Z,100112.35
2023-04-30T02:32:38.151Z,100115.29
2023-04-30T02:35:06.807Z,100117.81
2023-04-30T02:37:35.156Z,100117.68
2023-04-30T02:40:03.596Z,100118.84
2023-04-30T02:42:32.021Z,100120.21
2023-04-30T02:45:00.255Z,100121.74
2023-04-30T02:47:28.909Z,100121.34
2023-04-30T02:49:57.388Z,100125.38
2023-04-30T02:52:26.461Z,100125.55
2023-04-30T02:54:54.896Z,100126.73
2023-04-30T02:57:23.274Z,100128.34
2023-04-30T02:59:51.896Z,100130.27
2023-04-30T03:02:23.840Z,100133.55
2023-04-30T03:04:52.503Z,100135.05
2023-04-30T03:07:20.902Z,100144.16
2023-04-30T03:09:49.387Z,100148.56
2023-04-30T03:12:17.688Z,100149.75
2023-04-30T03:14:46.141Z,100151.63
2023-04-30T03:17:15.242Z,100154.17
2023-04-30T03:19:44.612Z,100154.94
2023-04-30T03:22:12.959Z,100157.16
2023-04-30T03:24:41.434Z,100160.30
2023-04-30T03:27:10.126Z,100164.05
2023-04-30T03:29:38.498Z,100166.23
2023-04-30T03:32:06.974Z,100167.39
2023-04-30T03:34:35.244Z,100167.78
2023-04-30T03:37:04.114Z,100175.58
2023-04-30T03:39:32.527Z,100176.89
2023-04-30T03:42:03.842Z,100180.55
2023-04-30T03:44:32.393Z,100185.96
2023-04-30T03:47:00.882Z,100191.75
2023-04-30T03:49:29.310Z,100194.71
2023-04-30T03:51:57.760Z,100198.04
2023-04-30T03:54:26.147Z,100200.16
2023-04-30T03:56:54.684Z,100207.23
2023-04-30T03:59:23.342Z,100216.81
2023-04-30T04:01:52.424Z,100222.27
2023-04-30T04:04:20.990Z,100227.13
2023-04-30T04:06:49.363Z,100231.77
2023-04-30T04:09:17.743Z,100240.39
2023-04-30T04:11:46.359Z,100246.59
2023-04-30T04:14:14.792Z,100250.39
2023-04-30T04:16:43.462Z,100255.96
2023-04-30T04:19:28.952Z,100257.15
2023-04-30T04:21:57.855Z,100263.41
2023-04-30T04:24:27.042Z,100272.95
2023-04-30T04:26:56.278Z,100278.99
2023-04-30T04:29:24.617Z,100279.85
2023-04-30T04:31:53.198Z,100281.21
2023-04-30T04:34:21.793Z,100286.48
2023-04-30T04:36:50.082Z,100293.05
2023-04-30T04:39:18.372Z,100296.91
2023-04-30T04:41:46.807Z,100305.71
2023-04-30T04:44:15.088Z,100310.21
2023-04-30T04:46:44.784Z,100314.96
2023-04-30T04:49:13.429Z,100324.07
2023-04-30T04:51:42.086Z,100325.80
2023-04-30T04:54:10.594Z,100331.20
2023-04-30T04:56:38.900Z,100335.23
2023-04-30T04:59:07.958Z,100339.27
2023-04-30T05:01:36.718Z,100338.69
2023-04-30T05:04:05.421Z,100343.02
2023-04-30T05:06:33.892Z,100349.20
2023-04-30T05:09:03.084Z,100358.64
2023-04-30T05:11:31.414Z,100362.71
2023-04-30T05:13:59.752Z,100360.61
2023-04-30T05:16:28.206Z,100366.67
2023-04-30T05:18:56.642Z,100373.85
2023-04-30T05:21:27.031Z,100378.09
2023-04-30T05:23:56.218Z,100382.64
2023-04-30T05:26:27.413Z,100385.00
2023-04-30T05:28:55.740Z,100387.45
2023-04-30T05:31:24.155Z,100390.41
2023-04-30T05:33:52.574Z,100388.99
2023-04-30T05:36:20.918Z,100390.71
2023-04-30T05:38:49.246Z,100394.91
2023-04-30T05:41:17.712Z,100398.27
2023-04-30T05:43:46.059Z,100400.08
2023-04-30T05:46:14.431Z,100403.92
2023-04-30T05:48:42.787Z,100407.94
2023-04-30T05:51:11.136Z,100405.45
2023-04-30T05:53:39.522Z,100404.75
2023-04-30T05:56:09.033Z,100406.10
2023-04-30T05:58:37.318Z,100413.32
2023-04-30T06:01:05.717Z,100413.81
2023-04-30T06:03:34.095Z,100417.52
2023-04-30T06:06:02.554Z,100421.54
2023-04-30T06:08:31.125Z,100421.91
2023-04-30T06:10:59.532Z,100428.25
2023-04-30T06:13:27.886Z,100433.69
2023-04-30T06:15:56.282Z,100439.95
2023-04-30T06:18:24.593Z,100440.70
2023-04-30T06:21:09.838Z,100439.09
2023-04-30T06:23:38.414Z,100443.67
2023-04-30T06:26:06.869Z,100447.40
2023-04-30T06:28:35.182Z,100446.73
2023-04-30T06:31:03.996Z,100450.31
2023-04-30T06:33:32.374Z,100447.06
2023-04-30T06:36:00.706Z,100445.39
2023-04-30T06:38:29.470Z,100445.48
2023-04-30T06:40:57.995Z,100446.88
2023-04-30T06:43:26.405Z,100442.27
2023-04-30T06:45:54.815Z,100441.86
2023-04-30T06:48:23.497Z,100440.87
2023-04-30T06:50:51.872Z,100439.88
2023-04-30T06:53:20.298Z,100438.89
2023-04-30T06:55:49.051Z,100440.90
2023-04-30T06:58:18.980Z,100439.10
2023-04-30T07:00:47.455Z,100441.27
2023-04-30T07:03:15.934Z,100448.00
2023-04-30T07:05:45.168Z,100448.41
2023-04-30T07:08:13.778Z,100450.44
2023-04-30T07:10:42.241Z,100458.41
2023-04-30T07:13:10.721Z,100466.98
2023-04-30T07:15:39.296Z,100468.08
2023-04-30T07:18:07.733Z,100465.89
2023-04-30T07:20:36.181Z,100468.19
2023-04-30T07:23:04.672Z,100471.02
2023-04-30T07:25:32.990Z,100467.91
2023-04-30T07:28:01.458Z,100472.20
2023-04-30T07:30:29.996Z,100482.27
2023-04-30T07:32:58.663Z,100486.27
2023-04-30T07:35:27.140Z,100485.10
2023-04-30T07:37:55.481Z,100484.45
2023-04-30T07:40:34.917Z,100487.46
2023-04-30T07:43:05.305Z,100485.65
2023-04-30T07:45:35.165Z,100485.08
2023-04-30T07:48:03.877Z,100495.17
2023-04-30T07:50:34.445Z,100506.55
2023-04-30T07:53:03.268Z,100502.96
2023-04-30T07:55:31.913Z,100501.67
2023-04-30T07:58:00.367Z,100499.61
2023-04-30T08:00:29.745Z,100501.30
2023-04-30T08:02:59.600Z,100498.95
2023-04-30T08:05:28.291Z,100500.98
2023-04-30T08:07:56.697Z,100504.67
2023-04-30T08:10:26.537Z,100508.92
2023-04-30T08:12:54.941Z,100510.41
2023-04-30T08:15:23.292Z,100508.60
2023-04-30T08:17:52.618Z,100509.52
2023-04-30T08:20:23.781Z,100508.14
2023-04-30T08:22:52.457Z,100508.55
2023-04-30T08:25:22.410Z,100517.20
2023-04-30T08:27:50.811Z,100521.10
2023-04-30T08:30:19.990Z,100520.16
2023-04-30T08:32:49.802Z,100517.05
2023-04-30T08:35:18.303Z,100514.10
2023-04-30T08:37:46.655Z,100517.83
2023-04-30T08:40:16.695Z,100522.17
2023-04-30T08:42:54.251Z,100523.39
2023-04-30T08:45:23.020Z,100528.84
2023-04-30T08:47:52.531Z,100533.48
2023-04-30T08:50:20.961Z,100536.34
2023-04-30T08:52:49.605Z,100540.97
2023-04-30T08:55:18.041Z,100541.88
2023-04-30T08:57:46.307Z,100541.05
2023-04-30T09:00:15.130Z,100543.70
2023-04-30T09:02:44.827Z,100542.95
2023-04-30T09:05:15.101Z,100546.89
2023-04-30T09:08:01.179Z,100539.02
2023-04-30T09:10:35.559Z,100539.75
2023-04-30T09:13:09.486Z,100544.90
2023-04-30T09:15:41.473Z,100547.50
2023-04-30T09:18:11.745Z,100553.98
2023-04-30T09:20:58.381Z,100558.80
2023-04-30T09:23:26.885Z,100555.13
2023-04-30T09:25:55.518Z,100560.75
2023-04-30T09:28:26.672Z,100557.42
2023-04-30T09:30:58.810Z,100553.67
2023-04-30T09:33:27.252Z,100556.71
2023-04-30T09:35:55.640Z,100556.78
2023-04-30T09:38:31.602Z,100554.30
2023-04-30T09:41:01.677Z,100563.05
2023-04-30T09:43:31.211Z,100565.58
2023-04-30T09:46:00.573Z,100569.83
2023-04-30T09:48:32.032Z,100564.04
2023-04-30T09:51:08.686Z,100568.21
2023-04-30T09:53:42.660Z,100566.06
2023-04-30T09:56:14.440Z,100568.95
2023-04-30T09:58:48.714Z,100570.83
2023-04-30T10:01:18.344Z,100571.09
2023-04-30T10:03:48.633Z,100563.37
2023-04-30T10:06:19.616Z,100559.02
2023-04-30T10:08:51.639Z,100563.85
2023-04-30T10:11:22.149Z,100562.70
2023-04-30T10:13:50.696Z,100563.66
2023-04-30T10:16:29.935Z,100562.20
2023-04-30T10:23:23.867Z,100562.77
2023-04-30T10:25:53.349Z,100554.46
2023-04-30T10:28:23.452Z,100561.92
2023-04-30T10:30:53.701Z,100556.58
2023-04-30T10:34:11.698Z,100552.30
2023-04-30T10:36:44.977Z,100555.08
2023-04-30T10:39:15.812Z,100554.27
2023-04-30T10:41:50.177Z,100549.63
2023-04-30T10:44:22.957Z,100557.59
2023-04-30T10:47:00.099Z,100546.59
2023-04-30T10:53:53.046Z,100544.58
2023-04-30T10:56:35.015Z,100544.59
2023-04-30T10:59:10.204Z,100545.93
2023-04-30T11:01:59.300Z,100546.12
2023-04-30T11:04:28.637Z,100552.88
2023-04-30T11:07:08.985Z,100550.70
2023-04-30T11:09:43.060Z,100552.15
2023-04-30T11:12:11.478Z,100558.85
2023-04-30T11:14:44.934Z,100557.76
2023-04-30T11:17:24.997Z,100553.84
2023-04-30T11:19:54.759Z,100554.60
2023-04-30T11:22:24.938Z,100560.20
2023-04-30T11:24:59.776Z,100569.14
2023-04-30T11:27:29.942Z,100568.62
2023-04-30T11:29:59.533Z,100567.66
2023-04-30T11:32:35.201Z,100566.02
2023-04-30T11:35:05.855Z,100558.88
2023-04-30T11:37:34.074Z,100560.14
2023-04-30T11:40:05.377Z,100568.86
2023-04-30T11:42:37.538Z,100565.48
2023-04-30T11:45:14.374Z,100568.26
2023-04-30T11:47:45.987Z,100566.02
2023-04-30T11:50:19.771Z,100571.95
2023-04-30T11:52:52.949Z,100575.89
2023-04-30T11:55:23.601Z,100581.06
2023-04-30T11:57:58.949Z,100583.73
2023-04-30T12:00:29.597Z,100580.30
2023-04-30T12:03:01.171Z,100583.30
2023-04-30T12:05:29.679Z,100587.21
2023-04-30T12:08:08.123Z,100581.70
2023-04-30T12:10:36.787Z,100579.60
2023-04-30T12:13:05.337Z,100586.60
2023-04-30T12:15:34.562Z,100588.23
2023-04-30T12:18:14.086Z,100586.60
2023-04-30T12:20:43.032Z,100584.35
2023-04-30T12:23:11.876Z,100588.46
2023-04-30T12:25:47.959Z,100579.84
2023-04-30T12:28:17.171Z,100584.08
2023-04-30T12:30:46.572Z,100587.17
2023-04-30T12:33:18.560Z,100586.20
2023-04-30T12:35:47.921Z,100587.20
2023-04-30T12:38:18.504Z,100587.86
2023-04-30T12:40:49.292Z,100579.83
2023-04-30T12:43:18.671Z,100576.71
2023-04-30T12:45:55.499Z,100580.98
2023-04-30T12:48:26.230Z,100576.77
2023-04-30T12:50:55.345Z,100569.45
2023-04-30T12:53:24.417Z,100573.13
2023-04-30T12:56:12.719Z,100574.64
2023-04-30T12:58:42.598Z,100572.44
2023-04-30T13:01:14.296Z,100568.77
2023-04-30T13:03:43.286Z,100565.38
2023-04-30T13:06:11.904Z,100566.11
2023-04-30T13:08:50.317Z,100566.31
2023-04-30T13:11:27.336Z,100570.55
2023-04-30T13:13:56.345Z,100563.30
2023-04-30T13:16:25.460Z,100566.09
2023-04-30T13:18:57.029Z,100561.17
2023-04-30T13:21:27.811Z,100564.96
2023-04-30T13:23:58.374Z,100571.05
2023-04-30T13:26:29.594Z,100568.23
2023-04-30T13:29:02.006Z,100566.14
2023-04-30T13:31:31.366Z,100566.45
2023-04-30T13:33:59.960Z,100568.96
2023-04-30T13:36:29.528Z,100567.22
2023-04-30T13:38:59.817Z,100573.64
2023-04-30T13:41:28.612Z,100575.84
2023-04-30T13:43:57.546Z,100573.13
2023-04-30T13:46:26.564Z,100568.08
2023-04-30T13:48:54.989Z,100568.26
2023-04-30T13:51:23.806Z,100571.10
2023-04-30T13:53:53.000Z,100570.93
2023-04-30T13:56:21.681Z,100569.91
2023-04-30T13:58:51.428Z,100567.73
2023-04-30T14:01:20.608Z,100568.40
2023-04-30T14:03:49.935Z,100571.08
2023-04-30T14:06:18.901Z,100570.02
2023-04-30T14:08:47.887Z,100563.80
2023-04-30T14:11:17.643Z,100570.58
2023-04-30T14:13:46.516Z,100569.98
2023-04-30T14:16:15.046Z,100569.34
2023-04-30T14:18:44.924Z,100574.63
2023-04-30T14:21:13.729Z,100571.94
2023-04-30T14:23:42.115Z,100574.70
2023-04-30T14:26:10.771Z,100573.48
2023-04-30T14:28:40.899Z,100576.90
2023-04-30T14:31:10.700Z,100578.65
2023-04-30T14:33:40.009Z,100578.35
2023-04-30T14:36:09.208Z,100578.28
2023-04-30T14:38:37.761Z,100576.45
2023-04-30T14:41:06.480Z,100578.30
2023-04-30T14:43:35.723Z,100579.71
2023-04-30T14:46:05.036Z,100583.35
2023-04-30T14:48:33.962Z,100584.55
2023-04-30T14:51:02.327Z,100582.73
2023-04-30T14:53:31.063Z,100580.34
2023-04-30T14:56:00.217Z,100583.15
2023-04-30T14:58:30.148Z,100580.15
2023-04-30T15:00:59.780Z,100582.30
2023-04-30T15:03:31.324Z,100584.59
2023-04-30T15:06:01.859Z,100587.55
2023-04-30T15:08:31.780Z,100583.29
2023-04-30T15:11:07.417Z,100578.45
2023-04-30T15:13:38.766Z,100579.53
2023-04-30T15:16:09.572Z,100581.56
2023-04-30T15:18:40.775Z,100586.52
2023-04-30T15:21:10.078Z,100582.20
2023-04-30T15:23:40.561Z,100580.23
2023-04-30T15:26:11.731Z,100580.86
2023-04-30T15:28:43.249Z,100590.57
2023-04-30T15:31:13.980Z,100589.02
2023-04-30T15:33:44.890Z,100589.04
2023-04-30T15:36:16.785Z,100587.09
2023-04-30T15:38:47.799Z,100587.58
2023-04-30T15:41:19.755Z,100594.13
2023-04-30T15:43:50.466Z,100592.27
2023-04-30T15:46:20.889Z,100592.10
2023-04-30T15:48:51.995Z,100594.11
2023-04-30T15:51:22.842Z,100599.20
2023-04-30T15:53:52.996Z,100601.39
2023-04-30T15:56:26.078Z,100601.30
2023-04-30T15:58:56.785Z,100603.23
